createdAt,value
2017-08-29T00:01:26.618Z,101222.14
2017-08-29T00:04:01.248Z,101223.14
2017-08-29T00:06:35.970Z,101222.74
2017-08-29T00:09:10.699Z,101222.22
2017-08-29T00:11:45.356Z,101220.15
2017-08-29T00:14:20.246Z,101214.86
2017-08-29T00:16:55.647Z,101211.62
2017-08-29T00:19:30.711Z,101214.27
2017-08-29T00:22:05.375Z,101215.70
2017-08-29T00:24:40.175Z,101212.42
2017-08-29T00:27:14.907Z,101220.20
2017-08-29T00:29:50.532Z,101215.75
2017-08-29T00:32:25.310Z,101214.03
2017-08-29T00:34:59.992Z,101208.44
2017-08-29T00:37:35.038Z,101211.59
2017-08-29T00:40:09.862Z,101217.28
2017-08-29T00:42:44.897Z,101213.69
2017-08-29T00:45:19.246Z,101206.52
2017-08-29T00:47:54.680Z,101207.29
2017-08-29T00:50:29.432Z,101202.13
2017-08-29T00:53:04.155Z,101198.69
2017-08-29T00:55:38.715Z,101200.73
2017-08-29T00:58:13.752Z,101198.02
2017-08-29T01:00:48.539Z,101201.26
2017-08-29T01:03:23.100Z,101194.38
2017-08-29T01:05:57.954Z,101198.18
2017-08-29T01:08:33.110Z,101193.37
2017-08-29T01:11:07.728Z,101191.90
2017-08-29T01:13:42.381Z,101193.63
2017-08-29T01:16:16.618Z,101195.87
2017-08-29T01:18:51.209Z,101192.87
2017-08-29T01:21:25.823Z,101191.08
2017-08-29T01:24:00.430Z,101191.24
2017-08-29T01:26:35.007Z,101192.48
2017-08-29T01:29:10.082Z,101192.20
2017-08-29T01:31:44.435Z,101189.20
2017-08-29T01:34:18.879Z,101200.60
2017-08-29T01:36:53.627Z,101192.08
2017-08-29T01:39:28.642Z,101188.28
2017-08-29T01:42:03.046Z,101195.64
2017-08-29T01:44:37.922Z,101191.48
2017-08-29T01:47:12.592Z,101185.20
2017-08-29T01:49:47.259Z,101192.84
2017-08-29T01:52:21.852Z,101190.64
2017-08-29T01:54:56.767Z,101186.84
2017-08-29T01:57:33.542Z,101181.27
2017-08-29T02:00:08.076Z,101181.78
2017-08-29T02:02:42.406Z,101184.51
2017-08-29T02:05:16.499Z,101178.43
2017-08-29T02:07:51.264Z,101179.20
2017-08-29T02:10:26.176Z,101179.51
2017-08-29T02:13:01.244Z,101177.11
2017-08-29T02:15:35.968Z,101174.55
2017-08-29T02:18:10.685Z,101170.16
2017-08-29T02:20:45.788Z,101166.88
2017-08-29T02:23:20.684Z,101175.67
2017-08-29T02:25:55.626Z,101171.91
2017-08-29T02:28:30.412Z,101171.85
2017-08-29T02:31:05.156Z,101169.64
2017-08-29T02:33:39.714Z,101174.52
2017-08-29T02:36:14.430Z,101168.81
2017-08-29T02:38:49.355Z,101162.58
2017-08-29T02:41:24.244Z,101165.45
2017-08-29T02:43:59.712Z,101162.45
2017-08-29T02:46:34.353Z,101158.42
2017-08-29T02:49:08.962Z,101155.37
2017-08-29T02:51:43.620Z,101156.94
2017-08-29T02:54:18.247Z,101161.95
2017-08-29T02:56:52.858Z,101156.85
2017-08-29T02:59:27.555Z,101154.02
2017-08-29T03:02:02.294Z,101147.36
2017-08-29T03:04:37.034Z,101148.84
2017-08-29T03:07:11.960Z,101141.76
2017-08-29T03:09:46.792Z,101142.27
2017-08-29T03:12:21.416Z,101140.55
2017-08-29T03:14:56.124Z,101140.91
2017-08-29T03:17:31.359Z,101139.98
2017-08-29T03:20:06.199Z,101134.25
2017-08-29T03:22:40.926Z,101132.56
2017-08-29T03:25:15.587Z,101130.97
2017-08-29T03:27:50.444Z,101125.34
2017-08-29T03:30:25.272Z,101119.95
2017-08-29T03:33:00.399Z,101124.02
2017-08-29T03:35:35.150Z,101111.73
2017-08-29T03:38:09.774Z,101113.25
2017-08-29T03:40:44.700Z,101112.38
2017-08-29T03:43:19.534Z,101108.61
2017-08-29T03:45:54.171Z,101110.52
2017-08-29T03:48:28.887Z,101097.65
2017-08-29T03:51:03.570Z,101100.16
2017-08-29T03:53:38.244Z,101100.80
2017-08-29T03:56:12.814Z,101103.02
2017-08-29T03:58:47.475Z,101098.17
2017-08-29T04:01:22.319Z,101100.65
2017-08-29T04:03:56.853Z,101099.17
2017-08-29T04:06:31.442Z,101099.30
2017-08-29T04:09:06.940Z,101094.94
2017-08-29T04:11:41.556Z,101101.20
2017-08-29T04:14:16.427Z,101099.07
2017-08-29T04:16:51.007Z,101094.05
2017-08-29T04:19:26.839Z,101092.83
2017-08-29T04:22:01.905Z,101095.06
2017-08-29T04:24:36.792Z,101091.75
2017-08-29T04:27:11.538Z,101087.31
2017-08-29T04:29:47.128Z,101090.25
2017-08-29T04:32:21.632Z,101088.20
2017-08-29T04:34:56.555Z,101088.55
2017-08-29T04:37:31.388Z,101084.11
2017-08-29T04:40:05.932Z,101087.82
2017-08-29T04:42:41.043Z,101088.34
2017-08-29T04:45:15.731Z,101086.55
2017-08-29T04:47:50.427Z,101086.39
2017-08-29T04:50:25.199Z,101089.12
2017-08-29T04:52:59.966Z,101088.24
2017-08-29T04:55:34.289Z,101090.84
2017-08-29T04:58:09.239Z,101086.69
2017-08-29T05:00:43.924Z,101087.69
2017-08-29T05:03:18.776Z,101085.90
2017-08-29T05:05:53.476Z,101082.16
2017-08-29T05:08:28.231Z,101084.46
2017-08-29T05:11:02.868Z,101079.56
2017-08-29T05:13:38.558Z,101086.47
2017-08-29T05:16:14.240Z,101083.27
2017-08-29T05:18:48.956Z,101080.25
2017-08-29T05:21:23.881Z,101089.59
2017-08-29T05:23:58.649Z,101086.48
2017-08-29T05:26:33.579Z,101092.98
2017-08-29T05:29:08.291Z,101086.55
2017-08-29T05:31:42.925Z,101089.55
2017-08-29T05:34:17.792Z,101093.89
2017-08-29T05:36:52.618Z,101090.63
2017-08-29T05:39:27.415Z,101093.09
2017-08-29T05:42:02.248Z,101089.27
2017-08-29T05:44:37.494Z,101094.64
2017-08-29T05:47:12.052Z,101090.72
2017-08-29T05:49:46.808Z,101085.69
2017-08-29T05:52:21.475Z,101081.76
2017-08-29T05:54:56.296Z,101077.00
2017-08-29T05:57:30.912Z,101079.20
2017-08-29T06:00:05.535Z,101081.19
2017-08-29T06:02:41.131Z,101080.38
2017-08-29T06:05:16.028Z,101075.20
2017-08-29T06:07:50.604Z,101082.92
2017-08-29T06:10:25.878Z,101080.50
2017-08-29T06:13:00.742Z,101083.98
2017-08-29T06:15:35.223Z,101082.57
2017-08-29T06:18:09.970Z,101069.66
2017-08-29T06:20:44.677Z,101069.52
2017-08-29T06:23:19.652Z,101069.62
2017-08-29T06:25:54.560Z,101070.52
2017-08-29T06:28:29.551Z,101061.83
2017-08-29T06:31:04.123Z,101064.81
2017-08-29T06:33:39.168Z,101066.68
2017-08-29T06:36:13.999Z,101061.20
2017-08-29T06:38:48.736Z,101062.52
2017-08-29T06:41:23.355Z,101070.09
2017-08-29T06:43:58.422Z,101078.27
2017-08-29T06:46:33.817Z,101068.70
2017-08-29T06:49:08.819Z,101058.63
2017-08-29T06:51:43.708Z,101063.19
2017-08-29T06:54:18.339Z,101059.89
2017-08-29T06:56:53.980Z,101063.14
2017-08-29T06:59:28.983Z,101066.59
2017-08-29T07:02:03.686Z,101064.69
2017-08-29T07:04:38.375Z,101063.91
2017-08-29T07:07:13.672Z,101060.94
2017-08-29T07:09:48.676Z,101061.78
2017-08-29T07:12:23.211Z,101054.61
2017-08-29T07:14:57.902Z,101054.55
2017-08-29T07:17:32.929Z,101052.39
2017-08-29T07:20:07.940Z,101050.41
2017-08-29T07:22:47.806Z,101051.52
2017-08-29T07:25:23.095Z,101048.11
2017-08-29T07:27:57.997Z,101053.41
2017-08-29T07:30:32.636Z,101046.59
2017-08-29T07:33:07.225Z,101044.31
2017-08-29T07:35:42.216Z,101037.78
2017-08-29T07:38:17.054Z,101033.09
2017-08-29T07:40:51.871Z,101041.55
2017-08-29T07:43:26.409Z,101040.70
2017-08-29T07:46:02.312Z,101040.37
2017-08-29T07:48:36.899Z,101040.39
2017-08-29T07:51:12.791Z,101054.45
2017-08-29T07:53:47.449Z,101048.25
2017-08-29T07:56:22.246Z,101046.77
2017-08-29T07:58:57.004Z,101047.78
2017-08-29T08:01:31.727Z,101038.55
2017-08-29T08:04:06.351Z,101038.89
2017-08-29T08:06:40.987Z,101041.82
2017-08-29T08:09:15.812Z,101039.84
2017-08-29T08:11:50.428Z,101038.77
2017-08-29T08:14:25.166Z,101039.38
2017-08-29T08:17:00.173Z,101041.91
2017-08-29T08:19:34.900Z,101040.76
2017-08-29T08:22:10.511Z,101042.57
2017-08-29T08:24:45.016Z,101041.93
2017-08-29T08:27:19.907Z,101040.81
2017-08-29T08:29:54.764Z,101042.53
2017-08-29T08:32:29.884Z,101040.45
2017-08-29T08:35:04.822Z,101041.22
2017-08-29T08:37:39.676Z,101044.06
2017-08-29T08:40:14.492Z,101045.33
2017-08-29T08:42:49.236Z,101037.61
2017-08-29T08:45:23.932Z,101039.50
2017-08-29T08:47:58.679Z,101027.17
2017-08-29T08:50:33.383Z,101028.88
2017-08-29T08:53:08.136Z,101029.77
2017-08-29T08:55:42.968Z,101029.83
2017-08-29T08:58:17.578Z,101030.19
2017-08-29T09:00:52.483Z,101029.98
2017-08-29T09:03:27.448Z,101029.66
2017-08-29T09:06:02.396Z,101025.41
2017-08-29T09:08:37.143Z,101031.50
2017-08-29T09:11:12.294Z,101033.45
2017-08-29T09:13:47.472Z,101028.69
2017-08-29T09:16:22.285Z,101022.68
2017-08-29T09:18:57.225Z,101027.95
2017-08-29T09:21:32.155Z,101019.90
2017-08-29T09:24:06.997Z,101014.92
2017-08-29T09:26:41.919Z,101016.91
2017-08-29T09:29:16.719Z,101018.52
2017-08-29T09:31:51.933Z,101016.19
2017-08-29T09:34:27.103Z,101009.78
2017-08-29T09:37:02.120Z,101001.02
2017-08-29T09:39:37.171Z,101001.66
2017-08-29T09:42:11.959Z,100994.67
2017-08-29T09:44:46.606Z,100992.08
2017-08-29T09:47:21.423Z,100984.39
2017-08-29T09:49:56.347Z,100986.54
2017-08-29T09:52:31.131Z,100988.23
2017-08-29T09:55:06.048Z,100972.84
2017-08-29T09:57:41.260Z,100980.41
2017-08-29T10:00:16.158Z,100981.03
2017-08-29T10:02:51.100Z,100978.46
2017-08-29T10:05:26.108Z,100980.84
2017-08-29T10:08:00.812Z,100971.70
2017-08-29T10:10:36.152Z,100971.84
2017-08-29T10:13:11.167Z,100974.81
2017-08-29T10:15:46.575Z,100971.19
2017-08-29T10:18:21.892Z,100971.19
2017-08-29T10:20:56.589Z,100966.10
2017-08-29T10:23:31.445Z,100971.57
2017-08-29T10:26:06.236Z,100960.16
2017-08-29T10:28:41.150Z,100958.18
2017-08-29T10:31:15.852Z,100963.97
2017-08-29T10:33:50.628Z,100959.67
2017-08-29T10:36:25.359Z,100949.40
2017-08-29T10:39:00.184Z,100952.12
2017-08-29T10:41:35.163Z,100949.53
2017-08-29T10:44:10.036Z,100948.17
2017-08-29T10:46:45.196Z,100939.56
2017-08-29T10:49:20.003Z,100948.09
2017-08-29T10:51:55.099Z,100941.91
2017-08-29T10:54:30.046Z,100947.42
2017-08-29T10:57:04.939Z,100944.22
2017-08-29T10:59:39.604Z,100939.27
2017-08-29T11:02:14.503Z,100944.18
2017-08-29T11:04:49.587Z,100925.59
2017-08-29T11:07:24.577Z,100924.07
2017-08-29T11:09:59.230Z,100913.92
2017-08-29T11:12:34.168Z,100908.67
2017-08-29T11:15:08.890Z,100905.73
2017-08-29T11:17:43.773Z,100905.10
2017-08-29T11:20:18.704Z,100900.94
2017-08-29T11:22:53.479Z,100901.56
2017-08-29T11:25:28.179Z,100896.75
2017-08-29T11:28:03.018Z,100897.09
2017-08-29T11:30:37.884Z,100898.39
2017-08-29T11:33:12.786Z,100897.45
2017-08-29T11:35:47.399Z,100895.64
2017-08-29T11:38:22.480Z,100888.69
2017-08-29T11:40:57.278Z,100886.91
2017-08-29T11:43:31.915Z,100883.44
2017-08-29T11:46:06.946Z,100890.02
2017-08-29T11:48:41.663Z,100888.39
2017-08-29T11:51:16.484Z,100875.05
2017-08-29T11:53:51.182Z,100876.14
2017-08-29T11:56:25.962Z,100880.59
2017-08-29T11:59:00.624Z,100870.33
2017-08-29T12:01:35.101Z,100871.19
2017-08-29T12:04:09.371Z,100871.42
2017-08-29T12:06:44.133Z,100862.09
2017-08-29T12:09:18.967Z,100866.89
2017-08-29T12:11:53.879Z,100872.66
2017-08-29T12:14:28.708Z,100873.39
2017-08-29T12:17:03.561Z,100869.12
2017-08-29T12:19:38.457Z,100866.52
2017-08-29T12:22:13.211Z,100864.81
2017-08-29T12:24:48.344Z,100869.73
2017-08-29T12:27:23.307Z,100870.49
2017-08-29T12:29:57.931Z,100868.88
2017-08-29T12:32:32.923Z,100858.92
2017-08-29T12:35:07.790Z,100855.83
2017-08-29T12:37:42.668Z,100860.05
2017-08-29T12:40:17.495Z,100847.94
2017-08-29T12:42:52.608Z,100845.47
2017-08-29T12:45:27.571Z,100839.53
2017-08-29T12:48:02.200Z,100845.39
2017-08-29T12:50:37.231Z,100841.95
2017-08-29T12:53:13.103Z,100838.64
2017-08-29T12:55:47.822Z,100839.65
2017-08-29T12:58:23.068Z,100838.21
2017-08-29T13:00:57.927Z,100835.03
2017-08-29T13:03:32.808Z,100822.00
2017-08-29T13:06:07.612Z,100821.34
2017-08-29T13:08:42.083Z,100825.55
2017-08-29T13:11:17.892Z,100815.04
2017-08-29T13:13:52.739Z,100813.84
2017-08-29T13:16:27.639Z,100805.91
2017-08-29T13:19:02.290Z,100809.23
2017-08-29T13:21:37.008Z,100808.05
2017-08-29T13:24:11.560Z,100804.48
2017-08-29T13:26:46.148Z,100808.25
2017-08-29T13:29:21.285Z,100802.00
2017-08-29T13:31:56.235Z,100816.65
2017-08-29T13:34:31.059Z,100800.13
2017-08-29T13:37:05.875Z,100801.05
2017-08-29T13:39:40.668Z,100795.10
2017-08-29T13:42:15.347Z,100797.58
2017-08-29T13:44:50.211Z,100803.44
2017-08-29T13:47:25.036Z,100799.16
2017-08-29T13:49:59.926Z,100792.61
2017-08-29T13:52:34.672Z,100789.13
2017-08-29T13:55:09.411Z,100791.98
2017-08-29T13:57:44.342Z,100789.48
2017-08-29T14:00:19.177Z,100781.87
2017-08-29T14:02:53.903Z,100781.84
2017-08-29T14:05:28.996Z,100782.46
2017-08-29T14:08:04.454Z,100779.89
2017-08-29T14:10:39.444Z,100778.93
2017-08-29T14:13:14.714Z,100779.56
2017-08-29T14:15:49.491Z,100776.34
2017-08-29T14:18:24.309Z,100771.86
2017-08-29T14:21:00.108Z,100766.33
2017-08-29T14:23:35.119Z,100760.30
2017-08-29T14:26:10.347Z,100765.08
2017-08-29T14:28:44.972Z,100766.17
2017-08-29T14:31:20.947Z,100767.92
2017-08-29T14:33:56.595Z,100765.73
2017-08-29T14:36:31.384Z,100768.81
2017-08-29T14:39:06.287Z,100771.94
2017-08-29T14:41:41.879Z,100768.98
2017-08-29T14:44:17.272Z,100765.38
2017-08-29T14:47:03.060Z,100764.40
2017-08-29T14:49:37.637Z,100762.52
2017-08-29T14:52:12.496Z,100757.45
2017-08-29T14:54:47.323Z,100764.50
2017-08-29T14:57:22.143Z,100761.59
2017-08-29T14:59:56.842Z,100762.34
2017-08-29T15:02:31.704Z,100759.24
2017-08-29T15:05:06.462Z,100756.70
2017-08-29T15:07:41.190Z,100754.56
2017-08-29T15:10:15.691Z,100750.90
2017-08-29T15:12:50.420Z,100748.15
2017-08-29T15:15:25.139Z,100741.25
2017-08-29T15:18:00.085Z,100736.31
2017-08-29T15:20:35.431Z,100744.06
2017-08-29T15:23:10.672Z,100741.52
2017-08-29T15:25:46.020Z,100739.92
2017-08-29T15:28:21.435Z,100736.02
2017-08-29T15:30:56.144Z,100746.34
2017-08-29T15:33:30.828Z,100747.82
2017-08-29T15:36:05.684Z,100739.64
2017-08-29T15:38:40.683Z,100732.55
2017-08-29T15:41:15.424Z,100724.63
2017-08-29T15:43:49.828Z,100722.77
2017-08-29T15:46:24.685Z,100725.83
2017-08-29T15:48:59.527Z,100724.19
2017-08-29T15:51:33.863Z,100720.78
2017-08-29T15:54:08.826Z,100721.36
2017-08-29T15:56:44.186Z,100718.45
2017-08-29T15:59:19.115Z,100720.48
2017-08-29T16:01:53.939Z,100722.02
2017-08-29T16:04:28.550Z,100730.70
2017-08-29T16:07:03.367Z,100725.72
2017-08-29T16:09:38.170Z,100724.55
2017-08-29T16:12:12.951Z,100724.18
2017-08-29T16:14:47.883Z,100723.09
2017-08-29T16:17:22.713Z,100716.45
2017-08-29T16:19:57.530Z,100722.48
2017-08-29T16:22:32.303Z,100722.48
2017-08-29T16:25:07.163Z,100720.30
2017-08-29T16:27:42.252Z,100723.33
2017-08-29T16:30:16.758Z,100726.88
2017-08-29T16:32:51.896Z,100720.77
2017-08-29T16:35:26.811Z,100714.69
2017-08-29T16:38:01.822Z,100714.98
2017-08-29T16:40:36.799Z,100707.97
2017-08-29T16:43:11.821Z,100698.29
2017-08-29T16:45:46.892Z,100701.80
2017-08-29T16:48:21.753Z,100688.93
2017-08-29T16:50:56.291Z,100686.77
2017-08-29T16:53:31.486Z,100682.66
2017-08-29T16:56:06.684Z,100684.74
2017-08-29T16:58:41.464Z,100689.89
2017-08-29T17:01:16.576Z,100691.28
2017-08-29T17:03:51.550Z,100696.00
2017-08-29T17:06:26.120Z,100687.17
2017-08-29T17:09:01.079Z,100690.03
2017-08-29T17:11:36.013Z,100695.70
2017-08-29T17:14:10.852Z,100687.89
2017-08-29T17:16:45.840Z,100694.77
2017-08-29T17:19:20.788Z,100697.23
2017-08-29T17:21:55.588Z,100705.04
2017-08-29T17:24:30.838Z,100699.31
2017-08-29T17:27:05.928Z,100704.72
2017-08-29T17:29:40.750Z,100704.54
2017-08-29T17:32:15.695Z,100708.47
2017-08-29T17:34:50.527Z,100708.70
2017-08-29T17:37:25.679Z,100713.09
2017-08-29T17:40:00.407Z,100707.10
2017-08-29T17:42:35.257Z,100711.80
2017-08-29T17:45:10.101Z,100710.23
2017-08-29T17:47:45.109Z,100714.58
2017-08-29T17:50:19.844Z,100719.34
2017-08-29T17:52:54.719Z,100714.25
2017-08-29T17:55:29.634Z,100711.99
2017-08-29T17:58:04.750Z,100709.74
2017-08-29T18:00:39.948Z,100707.38
2017-08-29T18:03:14.875Z,100711.19
2017-08-29T18:05:50.064Z,100702.55
2017-08-29T18:08:24.927Z,100703.72
2017-08-29T18:10:59.927Z,100702.84
2017-08-29T18:13:34.722Z,100706.39
2017-08-29T18:16:09.688Z,100707.22
2017-08-29T18:18:44.564Z,100706.98
2017-08-29T18:21:19.339Z,100703.28
2017-08-29T18:23:54.272Z,100708.17
2017-08-29T18:26:29.236Z,100704.84
2017-08-29T18:29:04.039Z,100706.81
2017-08-29T18:31:38.996Z,100699.61
2017-08-29T18:34:14.591Z,100701.37
2017-08-29T18:36:49.975Z,100698.31
2017-08-29T18:39:25.110Z,100695.22
2017-08-29T18:42:00.059Z,100695.19
2017-08-29T18:44:34.867Z,100693.69
2017-08-29T18:47:09.696Z,100687.66
2017-08-29T18:49:44.649Z,100690.00
2017-08-29T18:52:19.523Z,100696.70
2017-08-29T18:54:54.327Z,100690.60
2017-08-29T18:57:29.233Z,100688.21
2017-08-29T19:00:03.808Z,100684.50
2017-08-29T19:02:39.012Z,100689.40
2017-08-29T19:05:14.222Z,100685.45
2017-08-29T19:07:49.371Z,100686.63
2017-08-29T19:10:24.763Z,100680.14
2017-08-29T19:12:59.221Z,100677.53
2017-08-29T19:15:34.121Z,100679.72
2017-08-29T19:18:09.174Z,100677.22
2017-08-29T19:20:44.027Z,100672.09
2017-08-29T19:23:18.983Z,100674.47
2017-08-29T19:25:53.814Z,100669.83
2017-08-29T19:28:28.618Z,100680.72
2017-08-29T19:31:03.695Z,100675.90
2017-08-29T19:33:38.398Z,100675.09
2017-08-29T19:36:13.239Z,100679.34
2017-08-29T19:38:48.351Z,100680.53
2017-08-29T19:41:23.188Z,100676.53
2017-08-29T19:43:57.964Z,100679.81
2017-08-29T19:46:32.858Z,100681.22
2017-08-29T19:49:07.851Z,100677.31
2017-08-29T19:51:42.807Z,100683.07
2017-08-29T19:54:17.384Z,100683.27
2017-08-29T19:56:52.667Z,100674.70
2017-08-29T19:59:27.412Z,100675.34
2017-08-29T20:02:02.170Z,100672.55
2017-08-29T20:04:37.487Z,100675.31
2017-08-29T20:07:12.215Z,100667.36
2017-08-29T20:09:47.047Z,100667.56
2017-08-29T20:12:22.176Z,100674.66
2017-08-29T20:14:56.975Z,100666.29
2017-08-29T20:17:32.119Z,100665.04
2017-08-29T20:20:07.487Z,100672.44
2017-08-29T20:22:42.639Z,100671.75
2017-08-29T20:25:17.501Z,100670.16
2017-08-29T20:27:52.283Z,100668.11
2017-08-29T20:30:27.471Z,100666.84
2017-08-29T20:33:02.832Z,100667.69
2017-08-29T20:35:37.688Z,100665.66
2017-08-29T20:38:12.643Z,100670.55
2017-08-29T20:40:47.738Z,100677.54
2017-08-29T20:43:22.719Z,100676.16
2017-08-29T20:45:57.760Z,100674.97
2017-08-29T20:48:32.556Z,100667.23
2017-08-29T20:51:07.114Z,100664.70
2017-08-29T20:53:42.135Z,100665.75
2017-08-29T20:56:17.219Z,100659.08
2017-08-29T20:58:51.933Z,100664.16
2017-08-29T21:01:26.925Z,100668.91
2017-08-29T21:04:01.795Z,100665.42
2017-08-29T21:06:37.034Z,100667.49
2017-08-29T21:09:11.955Z,100665.76
2017-08-29T21:11:46.992Z,100662.79
2017-08-29T21:14:22.216Z,100658.91
2017-08-29T21:16:57.247Z,100657.94
2017-08-29T21:19:32.199Z,100655.94
2017-08-29T21:22:07.138Z,100660.80
2017-08-29T21:24:42.282Z,100653.26
2017-08-29T21:27:17.308Z,100649.42
2017-08-29T21:29:52.399Z,100658.28
2017-08-29T21:32:27.415Z,100655.74
2017-08-29T21:35:02.355Z,100653.23
2017-08-29T21:37:37.223Z,100649.11
2017-08-29T21:40:12.007Z,100643.98
2017-08-29T21:42:46.963Z,100645.91
2017-08-29T21:45:21.754Z,100649.92
2017-08-29T21:47:56.263Z,100653.61
2017-08-29T21:50:31.219Z,100658.66
2017-08-29T21:53:06.022Z,100655.69
2017-08-29T21:55:41.172Z,100659.98
2017-08-29T21:58:16.084Z,100658.89
2017-08-29T22:00:50.847Z,100657.75
2017-08-29T22:03:25.736Z,100655.05
2017-08-29T22:06:00.591Z,100650.81
2017-08-29T22:08:35.410Z,100649.05
2017-08-29T22:11:10.320Z,100638.59
2017-08-29T22:13:45.370Z,100650.56
2017-08-29T22:16:20.328Z,100645.80
2017-08-29T22:18:55.154Z,100631.14
2017-08-29T22:21:29.684Z,100627.45
2017-08-29T22:24:04.734Z,100636.47
2017-08-29T22:26:39.559Z,100634.46
2017-08-29T22:29:14.323Z,100631.65
2017-08-29T22:31:49.220Z,100630.95
2017-08-29T22:34:24.122Z,100628.72
2017-08-29T22:36:59.291Z,100630.30
2017-08-29T22:39:34.091Z,100635.25
2017-08-29T22:42:08.930Z,100643.48
2017-08-29T22:44:43.775Z,100644.23
2017-08-29T22:47:18.651Z,100645.50
2017-08-29T22:49:53.384Z,100636.86
2017-08-29T22:52:28.004Z,100626.87
2017-08-29T22:55:02.912Z,100632.95
2017-08-29T22:57:37.707Z,100624.72
2017-08-29T23:00:12.482Z,100614.88
2017-08-29T23:02:47.330Z,100609.87
2017-08-29T23:05:21.859Z,100605.44
2017-08-29T23:07:56.723Z,100596.00
2017-08-29T23:10:31.682Z,100591.84
2017-08-29T23:13:06.444Z,100602.48
2017-08-29T23:15:41.264Z,100601.23
2017-08-29T23:18:16.108Z,100601.59
2017-08-29T23:20:50.999Z,100600.57
2017-08-29T23:23:26.260Z,100594.83
2017-08-29T23:26:00.968Z,100601.69
2017-08-29T23:28:35.906Z,100592.61
2017-08-29T23:31:11.078Z,100589.60
2017-08-29T23:33:45.959Z,100581.08
2017-08-29T23:36:21.086Z,100571.38
2017-08-29T23:38:55.851Z,100570.73
2017-08-29T23:41:30.851Z,100566.59
2017-08-29T23:44:06.321Z,100566.80
2017-08-29T23:46:41.667Z,100573.03
2017-08-29T23:49:16.709Z,100573.70
2017-08-29T23:51:51.801Z,100573.23
2017-08-29T23:54:26.670Z,100573.23
2017-08-29T23:57:01.652Z,100563.14
2017-08-29T23:59:36.536Z,100561.48
